sensor_id;sensor_type;location;lat;lon;timestamp;pressure;altitude;pressure_sealevel;temperature;humidity
61318;BME280;47201;40.428;-8.436;2023-09-18T00:01:41;100465.94;;;17.98;100.00
61318;BME280;47201;40.428;-8.436;2023-09-18T00:03:42;100468.59;;;17.97;100.00
61318;BME280;47201;40.428;-8.436;2023-09-18T00:05:43;100463.31;;;17.97;100.00
61318;BME280;47201;40.428;-8.436;2023-09-18T00:07:44;100473.97;;;17.95;100.00
61318;BME280;47201;40.428;-8.436;2023-09-18T00:09:45;100474.03;;;17.92;100.00
61318;BME280;47201;40.428;-8.436;2023-09-18T00:11:45;100481.97;;;17.92;100.00
61318;BME280;47201;40.428;-8.436;2023-09-18T00:13:46;100477.56;;;17.92;100.00
61318;BME280;47201;40.428;-8.436;2023-09-18T00:15:47;100479.28;;;17.94;100.00
61318;BME280;47201;40.428;-8.436;2023-09-18T00:17:49;100479.31;;;17.92;100.00
61318;BME280;47201;40.428;-8.436;2023-09-18T00:19:49;100484.66;;;17.90;100.00
61318;BME280;47201;40.428;-8.436;2023-09-18T00:21:52;100482.03;;;17.90;100.00
61318;BME280;47201;40.428;-8.436;2023-09-18T00:23:53;100478.47;;;17.91;100.00
61318;BME280;47201;40.428;-8.436;2023-09-18T00:25:53;100480.34;;;17.88;100.00
61318;BME280;47201;40.428;-8.436;2023-09-18T00:27:54;100476.72;;;17.90;100.00
61318;BME280;47201;40.428;-8.436;2023-09-18T00:29:55;100472.34;;;17.89;100.00
61318;BME280;47201;40.428;-8.436;2023-09-18T00:31:55;100476.03;;;17.85;100.00
61318;BME280;47201;40.428;-8.436;2023-09-18T00:33:56;100481.44;;;17.82;100.00
61318;BME280;47201;40.428;-8.436;2023-09-18T00:35:56;100475.38;;;17.79;100.00
61318;BME280;47201;40.428;-8.436;2023-09-18T00:37:57;100478.94;;;17.77;100.00
61318;BME280;47201;40.428;-8.436;2023-09-18T00:39:58;100478.09;;;17.77;100.00
61318;BME280;47201;40.428;-8.436;2023-09-18T00:41:59;100487.91;;;17.73;100.00
61318;BME280;47201;40.428;-8.436;2023-09-18T00:43:59;100481.97;;;17.67;100.00
61318;BME280;47201;40.428;-8.436;2023-09-18T00:46:00;100488.22;;;17.64;100.00
61318;BME280;47201;40.428;-8.436;2023-09-18T00:48:01;100487.38;;;17.64;100.00
61318;BME280;47201;40.428;-8.436;2023-09-18T00:50:04;100490.81;;;17.66;100.00
61318;BME280;47201;40.428;-8.436;2023-09-18T00:52:07;100488.28;;;17.63;100.00
61318;BME280;47201;40.428;-8.436;2023-09-18T00:54:09;100495.47;;;17.59;100.00
61318;BME280;47201;40.428;-8.436;2023-09-18T00:56:11;100492.91;;;17.56;100.00
61318;BME280;47201;40.428;-8.436;2023-09-18T00:58:13;100497.34;;;17.55;100.00
61318;BME280;47201;40.428;-8.436;2023-09-18T01:00:14;100498.47;;;17.48;100.00
61318;BME280;47201;40.428;-8.436;2023-09-18T01:02:18;100498.75;;;17.39;100.00
61318;BME280;47201;40.428;-8.436;2023-09-18T01:04:21;100498.06;;;17.34;100.00
61318;BME280;47201;40.428;-8.436;2023-09-18T01:06:26;100491.13;;;17.29;100.00
61318;BME280;47201;40.428;-8.436;2023-09-18T01:08:31;100501.00;;;17.24;100.00
61318;BME280;47201;40.428;-8.436;2023-09-18T01:10:42;100494.91;;;17.22;100.00
61318;BME280;47201;40.428;-8.436;2023-09-18T01:12:56;100496.69;;;17.22;100.00
61318;BME280;47201;40.428;-8.436;2023-09-18T01:15:17;100491.44;;;17.20;100.00
61318;BME280;47201;40.428;-8.436;2023-09-18T01:17:22;100497.66;;;17.19;100.00
61318;BME280;47201;40.428;-8.436;2023-09-18T01:19:43;100494.06;;;17.20;100.00
61318;BME280;47201;40.428;-8.436;2023-09-18T01:21:46;100502.06;;;17.19;100.00
61318;BME280;47201;40.428;-8.436;2023-09-18T01:23:48;100500.38;;;17.16;100.00
61318;BME280;47201;40.428;-8.436;2023-09-18T01:25:49;100490.72;;;17.15;100.00
61318;BME280;47201;40.428;-8.436;2023-09-18T01:27:50;100500.44;;;17.15;100.00
61318;BME280;47201;40.428;-8.436;2023-09-18T01:29:52;100494.41;;;17.11;100.00
61318;BME280;47201;40.428;-8.436;2023-09-18T01:31:54;100485.66;;;17.09;100.00
61318;BME280;47201;40.428;-8.436;2023-09-18T01:33:55;100484.78;;;17.08;100.00
61318;BME280;47201;40.428;-8.436;2023-09-18T01:35:57;100483.09;;;17.06;100.00
61318;BME280;47201;40.428;-8.436;2023-09-18T01:37:59;100487.59;;;17.04;100.00
61318;BME280;47201;40.428;-8.436;2023-09-18T01:40:02;100482.38;;;17.01;100.00
61318;BME280;47201;40.428;-8.436;2023-09-18T01:42:07;100477.09;;;17.01;100.00
61318;BME280;47201;40.428;-8.436;2023-09-18T01:44:11;100474.59;;;16.98;100.00
61318;BME280;47201;40.428;-8.436;2023-09-18T01:46:12;100487.66;;;17.01;100.00
61318;BME280;47201;40.428;-8.436;2023-09-18T01:48:13;100481.47;;;17.02;100.00
61318;BME280;47201;40.428;-8.436;2023-09-18T01:50:14;100482.19;;;17.07;100.00
61318;BME280;47201;40.428;-8.436;2023-09-18T01:52:15;100474.38;;;17.04;100.00
61318;BME280;47201;40.428;-8.436;2023-09-18T01:54:15;100477.03;;;17.02;100.00
61318;BME280;47201;40.428;-8.436;2023-09-18T01:56:16;100483.22;;;17.03;100.00
61318;BME280;47201;40.428;-8.436;2023-09-18T01:58:17;100487.59;;;17.04;100.00
61318;BME280;47201;40.428;-8.436;2023-09-18T02:00:17;100484.13;;;17.02;100.00
61318;BME280;47201;40.428;-8.436;2023-09-18T02:02:18;100477.94;;;17.03;100.00
61318;BME280;47201;40.428;-8.436;2023-09-18T02:04:20;100482.25;;;17.05;100.00
61318;BME280;47201;40.428;-8.436;2023-09-18T02:06:21;100487.53;;;17.05;100.00
61318;BME280;47201;40.428;-8.436;2023-09-18T02:08:21;100483.09;;;17.06;100.00
61318;BME280;47201;40.428;-8.436;2023-09-18T02:10:22;100484.88;;;17.05;100.00
61318;BME280;47201;40.428;-8.436;2023-09-18T02:12:23;100483.28;;;17.01;100.00
61318;BME280;47201;40.428;-8.436;2023-09-18T02:14:23;100485.09;;;16.99;100.00
61318;BME280;47201;40.428;-8.436;2023-09-18T02:16:24;100488.69;;;16.96;100.00
61318;BME280;47201;40.428;-8.436;2023-09-18T02:18:25;100481.75;;;16.92;100.00
61318;BME280;47201;40.428;-8.436;2023-09-18T02:20:26;100484.56;;;16.86;100.00
61318;BME280;47201;40.428;-8.436;2023-09-18T02:22:27;100485.41;;;16.87;100.00
61318;BME280;47201;40.428;-8.436;2023-09-18T02:24:27;100481.06;;;16.86;100.00
61318;BME280;47201;40.428;-8.436;2023-09-18T02:26:29;100481.03;;;16.87;100.00
61318;BME280;47201;40.428;-8.436;2023-09-18T02:28:29;100480.13;;;16.87;100.00
61318;BME280;47201;40.428;-8.436;2023-09-18T02:30:32;100481.94;;;16.86;100.00
61318;BME280;47201;40.428;-8.436;2023-09-18T02:32:33;100481.09;;;16.84;100.00
61318;BME280;47201;40.428;-8.436;2023-09-18T02:34:34;100487.25;;;16.85;100.00
61318;BME280;47201;40.428;-8.436;2023-09-18T02:36:36;100482.84;;;16.85;100.00
61318;BME280;47201;40.428;-8.436;2023-09-18T02:38:39;100482.84;;;16.85;100.00
61318;BME280;47201;40.428;-8.436;2023-09-18T02:40:39;100482.06;;;16.81;100.00
61318;BME280;47201;40.428;-8.436;2023-09-18T02:42:40;100478.56;;;16.81;100.00
61318;BME280;47201;40.428;-8.436;2023-09-18T02:44:41;100484.72;;;16.81;100.00
61318;BME280;47201;40.428;-8.436;2023-09-18T02:46:42;100480.31;;;16.82;100.00
61318;BME280;47201;40.428;-8.436;2023-09-18T02:48:45;100482.97;;;16.80;100.00
61318;BME280;47201;40.428;-8.436;2023-09-18T02:50:46;100483.84;;;16.81;100.00
61318;BME280;47201;40.428;-8.436;2023-09-18T02:52:47;100484.75;;;16.80;100.00
61318;BME280;47201;40.428;-8.436;2023-09-18T02:54:48;100487.34;;;16.81;100.00
61318;BME280;47201;40.428;-8.436;2023-09-18T02:56:48;100488.25;;;16.80;100.00
61318;BME280;47201;40.428;-8.436;2023-09-18T02:58:49;100490.03;;;16.80;100.00
61318;BME280;47201;40.428;-8.436;2023-09-18T03:00:50;100478.66;;;16.78;100.00
61318;BME280;47201;40.428;-8.436;2023-09-18T03:02:51;100484.75;;;16.80;100.00
61318;BME280;47201;40.428;-8.436;2023-09-18T03:04:52;100483.88;;;16.79;100.00
61318;BME280;47201;40.428;-8.436;2023-09-18T03:06:52;100484.75;;;16.80;100.00
61318;BME280;47201;40.428;-8.436;2023-09-18T03:08:54;100488.22;;;16.82;100.00
61318;BME280;47201;40.428;-8.436;2023-09-18T03:10:56;100490.03;;;16.80;100.00
61318;BME280;47201;40.428;-8.436;2023-09-18T03:12:57;100495.41;;;16.77;100.00
61318;BME280;47201;40.428;-8.436;2023-09-18T03:14:58;100491.09;;;16.74;100.00
61318;BME280;47201;40.428;-8.436;2023-09-18T03:16:58;100485.16;;;16.68;100.00
61318;BME280;47201;40.428;-8.436;2023-09-18T03:18:59;100479.00;;;16.67;100.00
61318;BME280;47201;40.428;-8.436;2023-09-18T03:21:00;100478.16;;;16.65;100.00
61318;BME280;47201;40.428;-8.436;2023-09-18T03:23:01;100473.91;;;16.61;100.00
61318;BME280;47201;40.428;-8.436;2023-09-18T03:25:03;100483.91;;;16.49;100.00
61318;BME280;47201;40.428;-8.436;2023-09-18T03:27:03;100486.53;;;16.49;100.00
61318;BME280;47201;40.428;-8.436;2023-09-18T03:29:04;100490.97;;;16.49;100.00
61318;BME280;47201;40.428;-8.436;2023-09-18T03:31:05;100496.25;;;16.49;100.00
61318;BME280;47201;40.428;-8.436;2023-09-18T03:33:07;100485.63;;;16.50;100.00
61318;BME280;47201;40.428;-8.436;2023-09-18T03:35:09;100488.28;;;16.50;100.00
61318;BME280;47201;40.428;-8.436;2023-09-18T03:37:19;100487.59;;;16.44;100.00
61318;BME280;47201;40.428;-8.436;2023-09-18T03:39:20;100488.47;;;16.44;100.00
61318;BME280;47201;40.428;-8.436;2023-09-18T03:41:20;100484.06;;;16.45;100.00
61318;BME280;47201;40.428;-8.436;2023-09-18T03:43:21;100484.06;;;16.45;100.00
61318;BME280;47201;40.428;-8.436;2023-09-18T03:45:23;100487.63;;;16.42;100.00
61318;BME280;47201;40.428;-8.436;2023-09-18T03:47:24;100475.41;;;16.40;100.00
61318;BME280;47201;40.428;-8.436;2023-09-18T03:49:24;100485.16;;;16.38;100.00
61318;BME280;47201;40.428;-8.436;2023-09-18T03:51:26;100487.78;;;16.38;100.00
61318;BME280;47201;40.428;-8.436;2023-09-18T03:53:27;100487.03;;;16.32;100.00
61318;BME280;47201;40.428;-8.436;2023-09-18T03:55:28;100496.03;;;16.27;100.00
61318;BME280;47201;40.428;-8.436;2023-09-18T03:57:28;100495.31;;;16.20;100.00
61318;BME280;47201;40.428;-8.436;2023-09-18T03:59:29;100485.66;;;16.19;100.00
61318;BME280;47201;40.428;-8.436;2023-09-18T04:01:30;100493.72;;;16.14;100.00
61318;BME280;47201;40.428;-8.436;2023-09-18T04:03:31;100493.88;;;16.08;100.00
61318;BME280;47201;40.428;-8.436;2023-09-18T04:05:33;100487.88;;;16.03;100.00
61318;BME280;47201;40.428;-8.436;2023-09-18T04:07:33;100491.38;;;16.04;100.00
61318;BME280;47201;40.428;-8.436;2023-09-18T04:09:35;100499.28;;;16.04;100.00
61318;BME280;47201;40.428;-8.436;2023-09-18T04:11:37;100503.78;;;16.00;100.00
61318;BME280;47201;40.428;-8.436;2023-09-18T04:13:38;100503.00;;;15.96;100.00
61318;BME280;47201;40.428;-8.436;2023-09-18T04:15:39;100502.25;;;15.91;100.00
61318;BME280;47201;40.428;-8.436;2023-09-18T04:17:41;100500.66;;;15.85;100.00
61318;BME280;47201;40.428;-8.436;2023-09-18T04:19:41;100498.06;;;15.82;100.00
61318;BME280;47201;40.428;-8.436;2023-09-18T04:21:43;100505.06;;;15.85;100.00
61318;BME280;47201;40.428;-8.436;2023-09-18T04:23:44;100512.16;;;15.83;100.00
61318;BME280;47201;40.428;-8.436;2023-09-18T04:25:45;100506.00;;;15.81;100.00
61318;BME280;47201;40.428;-8.436;2023-09-18T04:27:49;100506.00;;;15.81;100.00
61318;BME280;47201;40.428;-8.436;2023-09-18T04:29:51;100511.22;;;15.82;100.00
61318;BME280;47201;40.428;-8.436;2023-09-18T04:31:52;100517.44;;;15.81;100.00
61318;BME280;47201;40.428;-8.436;2023-09-18T04:33:55;100515.66;;;15.82;100.00
61318;BME280;47201;40.428;-8.436;2023-09-18T04:35:56;100512.97;;;15.85;100.00
61318;BME280;47201;40.428;-8.436;2023-09-18T04:37:56;100517.19;;;15.92;100.00
61318;BME280;47201;40.428;-8.436;2023-09-18T04:39:57;100519.69;;;15.97;100.00
61318;BME280;47201;40.428;-8.436;2023-09-18T04:41:58;100511.78;;;15.97;100.00
61318;BME280;47201;40.428;-8.436;2023-09-18T04:43:59;100526.44;;;16.07;100.00
61318;BME280;47201;40.428;-8.436;2023-09-18T04:46:01;100531.53;;;16.13;100.00
61318;BME280;47201;40.428;-8.436;2023-09-18T04:48:06;100538.47;;;16.17;100.00
61318;BME280;47201;40.428;-8.436;2023-09-18T04:50:08;100534.81;;;16.22;100.00
61318;BME280;47201;40.428;-8.436;2023-09-18T04:52:11;100539.91;;;16.28;100.00
61318;BME280;47201;40.428;-8.436;2023-09-18T04:54:11;100542.44;;;16.32;100.00
61318;BME280;47201;40.428;-8.436;2023-09-18T04:56:12;100543.13;;;16.39;100.00
61318;BME280;47201;40.428;-8.436;2023-09-18T04:58:13;100544.75;;;16.45;100.00
61318;BME280;47201;40.428;-8.436;2023-09-18T05:00:14;100548.16;;;16.48;100.00
61318;BME280;47201;40.428;-8.436;2023-09-18T05:02:15;100542.84;;;16.50;100.00
61318;BME280;47201;40.428;-8.436;2023-09-18T05:04:16;100550.75;;;16.50;100.00
61318;BME280;47201;40.428;-8.436;2023-09-18T05:06:18;100555.13;;;16.49;100.00
61318;BME280;47201;40.428;-8.436;2023-09-18T05:08:19;100558.66;;;16.50;100.00
61318;BME280;47201;40.428;-8.436;2023-09-18T05:10:20;100558.66;;;16.50;100.00
61318;BME280;47201;40.428;-8.436;2023-09-18T05:12:20;100558.56;;;16.53;100.00
61318;BME280;47201;40.428;-8.436;2023-09-18T05:14:22;100558.44;;;16.58;100.00
61318;BME280;47201;40.428;-8.436;2023-09-18T05:16:23;100561.91;;;16.60;100.00
61318;BME280;47201;40.428;-8.436;2023-09-18T05:18:23;100559.31;;;16.58;100.00
61318;BME280;47201;40.428;-8.436;2023-09-18T05:20:25;100558.47;;;16.56;100.00
61318;BME280;47201;40.428;-8.436;2023-09-18T05:22:26;100560.25;;;16.56;100.00
61318;BME280;47201;40.428;-8.436;2023-09-18T05:24:27;100559.50;;;16.52;100.00
61318;BME280;47201;40.428;-8.436;2023-09-18T05:26:28;100569.16;;;16.52;100.00
61318;BME280;47201;40.428;-8.436;2023-09-18T05:28:30;100571.94;;;16.47;100.00
61318;BME280;47201;40.428;-8.436;2023-09-18T05:30:33;100575.56;;;16.43;100.00
61318;BME280;47201;40.428;-8.436;2023-09-18T05:32:34;100579.34;;;16.34;100.00
61318;BME280;47201;40.428;-8.436;2023-09-18T05:34:35;100586.53;;;16.27;100.00
61318;BME280;47201;40.428;-8.436;2023-09-18T05:36:36;100590.25;;;16.20;100.00
61318;BME280;47201;40.428;-8.436;2023-09-18T05:38:36;100586.88;;;16.15;100.00
61318;BME280;47201;40.428;-8.436;2023-09-18T05:40:37;100586.13;;;16.10;100.00
61318;BME280;47201;40.428;-8.436;2023-09-18T05:42:42;100596.78;;;16.05;100.00
61318;BME280;47201;40.428;-8.436;2023-09-18T05:44:43;100592.56;;;15.99;100.00
61318;BME280;47201;40.428;-8.436;2023-09-18T05:46:44;100601.38;;;15.98;100.00
61318;BME280;47201;40.428;-8.436;2023-09-18T05:48:45;100598.81;;;15.95;100.00
61318;BME280;47201;40.428;-8.436;2023-09-18T05:50:46;100603.22;;;15.95;100.00
61318;BME280;47201;40.428;-8.436;2023-09-18T05:52:47;100604.84;;;16.00;100.00
61318;BME280;47201;40.428;-8.436;2023-09-18T05:54:49;100599.47;;;16.04;100.00
61318;BME280;47201;40.428;-8.436;2023-09-18T05:56:50;100605.69;;;16.01;100.00
61318;BME280;47201;40.428;-8.436;2023-09-18T05:58:51;100594.38;;;15.97;100.00
61318;BME280;47201;40.428;-8.436;2023-09-18T06:00:53;100599.63;;;15.97;100.00
61318;BME280;47201;40.428;-8.436;2023-09-18T06:02:54;100601.41;;;15.97;100.00
61318;BME280;47201;40.428;-8.436;2023-09-18T06:04:56;100602.06;;;16.05;100.00
61318;BME280;47201;40.428;-8.436;2023-09-18T06:06:58;100601.94;;;16.11;100.00
61318;BME280;47201;40.428;-8.436;2023-09-18T06:08:59;100602.72;;;16.15;100.00
61318;BME280;47201;40.428;-8.436;2023-09-18T06:10:59;100603.56;;;16.15;100.00
61318;BME280;47201;40.428;-8.436;2023-09-18T06:13:00;100606.16;;;16.17;100.00
61318;BME280;47201;40.428;-8.436;2023-09-18T06:15:08;100607.06;;;16.16;100.00
61318;BME280;47201;40.428;-8.436;2023-09-18T06:17:12;100609.63;;;16.19;100.00
61318;BME280;47201;40.428;-8.436;2023-09-18T06:19:18;100617.38;;;16.25;100.00
61318;BME280;47201;40.428;-8.436;2023-09-18T06:21:18;100617.25;;;16.30;100.00
61318;BME280;47201;40.428;-8.436;2023-09-18T06:23:19;100625.78;;;16.40;100.00
61318;BME280;47201;40.428;-8.436;2023-09-18T06:25:20;100617.69;;;16.46;100.00
61318;BME280;47201;40.428;-8.436;2023-09-18T06:27:21;100624.53;;;16.53;100.00
61318;BME280;47201;40.428;-8.436;2023-09-18T06:29:21;100626.97;;;16.61;100.00
61318;BME280;47201;40.428;-8.436;2023-09-18T06:31:22;100630.38;;;16.64;100.00
61318;BME280;47201;40.428;-8.436;2023-09-18T06:33:24;100626.78;;;16.67;100.00
61318;BME280;47201;40.428;-8.436;2023-09-18T06:35:24;100637.16;;;16.73;100.00
61318;BME280;47201;40.428;-8.436;2023-09-18T06:37:25;100637.00;;;16.79;100.00
61318;BME280;47201;40.428;-8.436;2023-09-18T06:39:26;100649.28;;;16.80;100.00
61318;BME280;47201;40.428;-8.436;2023-09-18T06:41:26;100660.91;;;16.75;100.00
61318;BME280;47201;40.428;-8.436;2023-09-18T06:43:27;100661.03;;;16.69;100.00
61318;BME280;47201;40.428;-8.436;2023-09-18T06:45:28;100665.66;;;16.62;100.00
61318;BME280;47201;40.428;-8.436;2023-09-18T06:47:28;100656.03;;;16.59;100.00
61318;BME280;47201;40.428;-8.436;2023-09-18T06:49:29;100672.78;;;16.58;100.00
61318;BME280;47201;40.428;-8.436;2023-09-18T06:51:31;100670.81;;;16.67;100.00
61318;BME280;47201;40.428;-8.436;2023-09-18T06:53:31;100668.03;;;16.71;100.00
61318;BME280;47201;40.428;-8.436;2023-09-18T06:55:32;100668.53;;;16.84;100.00
61318;BME280;47201;40.428;-8.436;2023-09-18T06:57:33;100670.06;;;16.94;100.00
61318;BME280;47201;40.428;-8.436;2023-09-18T06:59:34;100672.63;;;17.27;100.00
61318;BME280;47201;40.428;-8.436;2023-09-18T07:01:35;100686.91;;;17.79;100.00
61318;BME280;47201;40.428;-8.436;2023-09-18T07:03:36;100680.63;;;18.36;100.00
61318;BME280;47201;40.428;-8.436;2023-09-18T07:05:36;100689.22;;;18.94;100.00
61318;BME280;47201;40.428;-8.436;2023-09-18T07:07:37;100695.13;;;19.48;100.00
61318;BME280;47201;40.428;-8.436;2023-09-18T07:09:38;100695.91;;;19.96;100.00
61318;BME280;47201;40.428;-8.436;2023-09-18T07:11:38;100702.84;;;20.43;98.45
61318;BME280;47201;40.428;-8.436;2023-09-18T07:13:39;100704.63;;;20.84;95.20
61318;BME280;47201;40.428;-8.436;2023-09-18T07:15:40;100715.53;;;21.17;95.35
61318;BME280;47201;40.428;-8.436;2023-09-18T07:17:41;100723.88;;;21.48;93.55
61318;BME280;47201;40.428;-8.436;2023-09-18T07:19:42;100734.06;;;21.95;91.46
61318;BME280;47201;40.428;-8.436;2023-09-18T07:21:42;100739.94;;;22.39;89.08
61318;BME280;47201;40.428;-8.436;2023-09-18T07:23:45;100748.25;;;22.68;87.82
61318;BME280;47201;40.428;-8.436;2023-09-18T07:25:49;100752.94;;;23.13;86.58
61318;BME280;47201;40.428;-8.436;2023-09-18T07:27:49;100759.41;;;23.59;84.15
61318;BME280;47201;40.428;-8.436;2023-09-18T07:29:50;100760.94;;;23.97;83.54
61318;BME280;47201;40.428;-8.436;2023-09-18T07:31:51;100758.47;;;24.54;83.23
61318;BME280;47201;40.428;-8.436;2023-09-18T07:33:53;100770.50;;;25.21;80.22
61318;BME280;47201;40.428;-8.436;2023-09-18T07:35:53;100773.19;;;25.64;81.23
61318;BME280;47201;40.428;-8.436;2023-09-18T07:37:54;100777.31;;;25.97;81.31
61318;BME280;47201;40.428;-8.436;2023-09-18T07:39:55;100782.94;;;26.35;81.34
61318;BME280;47201;40.428;-8.436;2023-09-18T07:41:56;100786.88;;;26.69;80.74
61318;BME280;47201;40.428;-8.436;2023-09-18T07:43:57;100788.09;;;26.78;82.13
61318;BME280;47201;40.428;-8.436;2023-09-18T07:45:59;100789.84;;;27.18;81.62
61318;BME280;47201;40.428;-8.436;2023-09-18T07:48:04;100791.44;;;27.46;82.02
61318;BME280;47201;40.428;-8.436;2023-09-18T07:50:08;100788.09;;;27.93;81.87
61318;BME280;47201;40.428;-8.436;2023-09-18T07:52:09;100797.88;;;28.67;82.14
61318;BME280;47201;40.428;-8.436;2023-09-18T07:54:14;100796.03;;;29.59;81.24
61318;BME280;47201;40.428;-8.436;2023-09-18T07:56:16;100805.34;;;30.22;81.35
61318;BME280;47201;40.428;-8.436;2023-09-18T07:58:19;100801.63;;;31.09;82.29
61318;BME280;47201;40.428;-8.436;2023-09-18T08:00:20;100811.16;;;31.44;83.38
61318;BME280;47201;40.428;-8.436;2023-09-18T08:02:26;100817.59;;;31.01;83.44
61318;BME280;47201;40.428;-8.436;2023-09-18T08:04:31;100808.13;;;31.07;84.30
61318;BME280;47201;40.428;-8.436;2023-09-18T08:06:33;100820.59;;;31.29;83.72
61318;BME280;47201;40.428;-8.436;2023-09-18T08:08:34;100810.50;;;30.58;85.32
61318;BME280;47201;40.428;-8.436;2023-09-18T08:10:36;100814.50;;;30.84;85.47
61318;BME280;47201;40.428;-8.436;2023-09-18T08:12:38;100815.53;;;31.36;84.46
61318;BME280;47201;40.428;-8.436;2023-09-18T08:14:44;100820.13;;;31.76;83.81
61318;BME280;47201;40.428;-8.436;2023-09-18T08:16:45;100824.94;;;31.41;84.06
61318;BME280;47201;40.428;-8.436;2023-09-18T08:18:46;100825.81;;;31.52;85.31
61318;BME280;47201;40.428;-8.436;2023-09-18T08:20:48;100828.22;;;31.76;83.94
61318;BME280;47201;40.428;-8.436;2023-09-18T08:22:48;100834.91;;;31.51;84.72
61318;BME280;47201;40.428;-8.436;2023-09-18T08:24:53;100834.78;;;31.83;84.32
61318;BME280;47201;40.428;-8.436;2023-09-18T08:26:54;100831.06;;;32.45;83.32
61318;BME280;47201;40.428;-8.436;2023-09-18T08:28:55;100839.22;;;33.21;82.92
61318;BME280;47201;40.428;-8.436;2023-09-18T08:30:56;100838.16;;;33.42;82.67
61318;BME280;47201;40.428;-8.436;2023-09-18T08:32:59;100841.47;;;33.26;82.44
61318;BME280;47201;40.428;-8.436;2023-09-18T08:34:59;100848.72;;;33.45;82.06
61318;BME280;47201;40.428;-8.436;2023-09-18T08:37:03;100845.06;;;33.92;81.92
61318;BME280;47201;40.428;-8.436;2023-09-18T08:39:04;100857.31;;;34.42;82.00
61318;BME280;47201;40.428;-8.436;2023-09-18T08:41:08;100856.41;;;34.78;80.86
61318;BME280;47201;40.428;-8.436;2023-09-18T08:43:11;100849.81;;;34.54;81.22
61318;BME280;47201;40.428;-8.436;2023-09-18T08:45:22;100844.25;;;34.82;81.18
61318;BME280;47201;40.428;-8.436;2023-09-18T08:47:23;100849.34;;;35.30;81.31
61318;BME280;47201;40.428;-8.436;2023-09-18T08:49:25;100854.97;;;35.71;80.59
61318;BME280;47201;40.428;-8.436;2023-09-18T08:51:27;100844.66;;;35.40;80.61
61318;BME280;47201;40.428;-8.436;2023-09-18T08:53:35;100836.25;;;34.26;83.09
61318;BME280;47201;40.428;-8.436;2023-09-18T08:55:36;100843.34;;;34.37;82.69
61318;BME280;47201;40.428;-8.436;2023-09-18T08:57:38;100844.81;;;34.31;81.20
61318;BME280;47201;40.428;-8.436;2023-09-18T08:59:40;100846.19;;;34.36;81.76
61318;BME280;47201;40.428;-8.436;2023-09-18T09:01:41;100844.72;;;34.05;81.68
61318;BME280;47201;40.428;-8.436;2023-09-18T09:03:43;100851.88;;;33.96;82.16
61318;BME280;47201;40.428;-8.436;2023-09-18T09:05:45;100856.34;;;34.15;82.14
61318;BME280;47201;40.428;-8.436;2023-09-18T09:07:46;100851.56;;;33.44;84.22
61318;BME280;47201;40.428;-8.436;2023-09-18T09:09:47;100850.00;;;33.41;84.34
61318;BME280;47201;40.428;-8.436;2023-09-18T09:11:51;100854.97;;;34.29;83.36
61318;BME280;47201;40.428;-8.436;2023-09-18T09:14:13;100868.31;;;34.77;81.58
61318;BME280;47201;40.428;-8.436;2023-09-18T09:16:18;100856.13;;;33.71;82.30
61318;BME280;47201;40.428;-8.436;2023-09-18T09:18:19;100859.34;;;33.09;83.92
61318;BME280;47201;40.428;-8.436;2023-09-18T09:20:20;100863.31;;;33.15;83.79
61318;BME280;47201;40.428;-8.436;2023-09-18T09:22:21;100869.59;;;33.63;83.83
61318;BME280;47201;40.428;-8.436;2023-09-18T09:24:36;100879.38;;;35.02;81.72
61318;BME280;47201;40.428;-8.436;2023-09-18T09:26:37;100886.03;;;35.95;80.51
61318;BME280;47201;40.428;-8.436;2023-09-18T09:28:39;100880.63;;;36.19;80.65
61318;BME280;47201;40.428;-8.436;2023-09-18T09:30:39;100878.47;;;35.80;80.19
61318;BME280;47201;40.428;-8.436;2023-09-18T09:32:40;100874.78;;;36.74;79.72
61318;BME280;47201;40.428;-8.436;2023-09-18T09:34:42;100876.22;;;37.51;78.78
61318;BME280;47201;40.428;-8.436;2023-09-18T09:36:54;100883.25;;;37.85;77.97
61318;BME280;47201;40.428;-8.436;2023-09-18T09:38:56;100875.28;;;38.06;77.68
61318;BME280;47201;40.428;-8.436;2023-09-18T09:41:00;100876.91;;;38.70;77.44
61318;BME280;47201;40.428;-8.436;2023-09-18T09:43:02;100878.97;;;37.90;77.38
61318;BME280;47201;40.428;-8.436;2023-09-18T09:45:10;100875.25;;;37.27;79.10
61318;BME280;47201;40.428;-8.436;2023-09-18T09:47:12;100870.34;;;36.40;80.59
61318;BME280;47201;40.428;-8.436;2023-09-18T09:49:15;100869.97;;;36.34;80.46
61318;BME280;47201;40.428;-8.436;2023-09-18T09:51:18;100865.41;;;36.60;79.23
61318;BME280;47201;40.428;-8.436;2023-09-18T09:53:44;100874.56;;;37.17;77.61
61318;BME280;47201;40.428;-8.436;2023-09-18T09:55:54;100873.59;;;35.49;78.56
61318;BME280;47201;40.428;-8.436;2023-09-18T09:58:02;100862.63;;;33.03;82.07
61318;BME280;47201;40.428;-8.436;2023-09-18T10:00:04;100874.44;;;31.73;84.45
61318;BME280;47201;40.428;-8.436;2023-09-18T10:02:26;100870.75;;;32.34;84.41
61318;BME280;47201;40.428;-8.436;2023-09-18T10:04:28;100869.00;;;32.14;83.51
61318;BME280;47201;40.428;-8.436;2023-09-18T10:06:34;100879.75;;;32.35;81.78
61318;BME280;47201;40.428;-8.436;2023-09-18T10:08:39;100879.59;;;33.05;80.79
61318;BME280;47201;40.428;-8.436;2023-09-18T10:10:45;100885.66;;;33.84;80.65
61318;BME280;47201;40.428;-8.436;2023-09-18T10:12:47;100883.22;;;34.09;81.72
61318;BME280;47201;40.428;-8.436;2023-09-18T10:14:50;100875.28;;;33.69;82.51
61318;BME280;47201;40.428;-8.436;2023-09-18T10:16:54;100886.88;;;34.36;81.41
61318;BME280;47201;40.428;-8.436;2023-09-18T10:19:09;100894.72;;;35.64;79.06
61318;BME280;47201;40.428;-8.436;2023-09-18T10:21:26;100886.56;;;36.91;77.99
61318;BME280;47201;40.428;-8.436;2023-09-18T10:23:42;100894.31;;;37.43;77.95
61318;BME280;47201;40.428;-8.436;2023-09-18T10:25:48;100889.56;;;38.17;77.46